Gran Canaria, Canary Islands

3:57 AM WET on December 19, 2014 (GMT +0000)
Gran Canaria | Change Station
CLOSE
Current Station
Personal Weather Station
Location: Gran Canaria, Canary Islands
Elevation: 30 ft
Nearby Weather Stations

Elev 30 ft 28.00 °N, 15.37 °W | Updated 10 seconds ago

Clear
Clear
59.0 °F
Feels Like 59.0 °F
N
6.9
Wind Variable Wind from NNW
Gusts 6.9 mph

Today
High -- | Low -- °F
--% Chance of Precip.
Yesterday
High -- | Low -- °F
Precip. -- in
7:47 AM 6:09 PM
Waning Crescent, 10% visible
Pressure 30.30 in
Visibility -9999.0 miles
Clouds
Dew Point 54 °F
Humidity 83%
Rainfall 0.00 in
Snow Depth Not available.
UV Not available.
Pollen Not available.
Air Quality Not available.
Flu Activity Not available.
METAR GCLP 190330Z 31005KT CAVOK 16/12 Q1026 NOSIG

More Conditions Fewer Conditions

Pressure 30.30 in
Visibility -9999.0 miles
Clouds
Dew Point 54 °F
Humidity 83%
Rainfall 0.00 in
Snow Depth Not available.
UV Not available.
Pollen Not available.
Air Quality Not available.
Flu Activity Not available.
METAR GCLP 190330Z 31005KT CAVOK 16/12 Q1026 NOSIG

More Conditions Fewer Conditions

10-Day Weather Forecast

Almanac

Astronomy

Dec. 19, 2014 Rise Set
Actual Time
Civil Twilight
Nautical Twilight
Astronomical Twilight
Moon
Length of Visible Light
Length of Day
Tomorrow will be .
, % of the Moon is Illuminated

Today's Extremes

Country Highs Country Lows

Community

WunderPhotos

Upload Photos

1,778,985 photos uploaded!

WunderBlogs® & News

Nearby

Air Quality

  Air Quality AQ Index Pollutant
Not available.

Snow Depth

Station Depth Elevation

Earthquake Activity

City Distance Mag. Time & Date
Minimum magnitude displayed is 2.5.

Coastal Water Temperatures

Place Temperature

Nearby Weather Stations